createdAt,value
2018-07-03T00:00:48.805Z,98824.22
2018-07-03T00:03:17.881Z,98823.69
2018-07-03T00:05:47.009Z,98823.98
2018-07-03T00:08:16.064Z,98828.44
2018-07-03T00:10:45.100Z,98824.59
2018-07-03T00:13:14.161Z,98831.30
2018-07-03T00:15:43.673Z,98823.94
2018-07-03T00:18:12.868Z,98818.50
2018-07-03T00:20:42.042Z,98825.16
2018-07-03T00:23:11.117Z,98818.75
2018-07-03T00:25:40.154Z,98820.28
2018-07-03T00:28:09.218Z,98825.69
2018-07-03T00:30:38.345Z,98830.12
2018-07-03T00:33:07.651Z,98834.89
2018-07-03T00:35:36.774Z,98827.80
2018-07-03T00:38:06.240Z,98823.17
2018-07-03T00:40:35.419Z,98815.28
2018-07-03T00:43:04.520Z,98819.82
2018-07-03T00:45:33.590Z,98823.61
2018-07-03T00:48:02.691Z,98822.66
2018-07-03T00:50:38.305Z,98816.56
2018-07-03T00:53:07.341Z,98814.61
2018-07-03T00:55:37.445Z,98821.78
2018-07-03T00:58:06.533Z,98822.17
2018-07-03T01:00:36.197Z,98826.80
2018-07-03T01:03:05.467Z,98821.82
2018-07-03T01:05:34.656Z,98814.00
2018-07-03T01:08:03.695Z,98818.68
2018-07-03T01:10:32.754Z,98819.36
2018-07-03T01:13:01.809Z,98816.80
2018-07-03T01:15:30.897Z,98823.00
2018-07-03T01:17:59.970Z,98820.73
2018-07-03T01:20:29.105Z,98818.78
2018-07-03T01:22:58.166Z,98820.83
2018-07-03T01:25:27.254Z,98821.86
2018-07-03T01:27:56.322Z,98824.22
2018-07-03T01:30:25.397Z,98820.91
2018-07-03T01:32:54.456Z,98819.37
2018-07-03T01:35:23.520Z,98820.52
2018-07-03T01:37:52.567Z,98823.97
2018-07-03T01:40:21.649Z,98824.35
2018-07-03T01:42:50.867Z,98826.70
2018-07-03T01:45:20.913Z,98824.16
2018-07-03T01:47:50.062Z,98828.01
2018-07-03T01:50:19.299Z,98820.63
2018-07-03T01:52:48.367Z,98817.34
2018-07-03T01:55:17.989Z,98822.78
2018-07-03T01:57:47.053Z,98823.66
2018-07-03T02:00:16.237Z,98769.91
2018-07-03T02:02:45.288Z,98829.13
2018-07-03T02:05:14.368Z,98831.56
2018-07-03T02:07:43.421Z,98836.37
2018-07-03T02:10:12.473Z,98837.09
2018-07-03T02:12:41.613Z,98840.78
2018-07-03T02:15:10.649Z,98844.09
2018-07-03T02:17:39.730Z,98837.91
2018-07-03T02:20:08.830Z,98841.63
2018-07-03T02:22:37.937Z,98842.11
2018-07-03T02:25:07.034Z,98838.95
2018-07-03T02:27:36.081Z,98837.54
2018-07-03T02:30:05.585Z,98837.15
2018-07-03T02:32:34.682Z,98839.70
2018-07-03T02:35:03.796Z,98838.16
2018-07-03T02:37:32.836Z,98843.23
2018-07-03T02:40:01.896Z,98844.91
2018-07-03T02:42:30.940Z,98846.65
2018-07-03T02:44:59.994Z,98842.70
2018-07-03T02:47:29.026Z,98843.64
2018-07-03T02:49:58.127Z,98840.49
2018-07-03T02:52:27.165Z,98847.09
2018-07-03T02:54:56.236Z,98840.13
2018-07-03T02:57:25.278Z,98844.29
2018-07-03T02:59:54.405Z,98842.31
2018-07-03T03:02:23.444Z,98845.47
2018-07-03T03:04:52.510Z,98849.44
2018-07-03T03:07:21.567Z,98850.65
2018-07-03T03:09:50.641Z,98844.34
2018-07-03T03:12:19.736Z,98841.14
2018-07-03T03:14:50.025Z,98839.84
2018-07-03T03:17:20.323Z,98844.60
2018-07-03T03:19:49.429Z,98848.36
2018-07-03T03:22:18.466Z,98852.94
2018-07-03T03:24:47.469Z,98854.09
2018-07-03T03:27:16.576Z,98849.63
2018-07-03T03:29:45.609Z,98856.63
2018-07-03T03:32:14.675Z,98847.16
2018-07-03T03:34:43.745Z,98853.25
2018-07-03T03:37:12.822Z,98855.43
2018-07-03T03:39:41.875Z,98854.36
2018-07-03T03:42:10.980Z,98862.75
2018-07-03T03:44:40.531Z,98864.94
2018-07-03T03:47:09.634Z,98868.20
2018-07-03T03:49:38.693Z,98874.50
2018-07-03T03:52:07.773Z,98879.41
2018-07-03T03:54:37.126Z,98879.09
2018-07-03T03:57:06.447Z,98878.76
2018-07-03T03:59:35.562Z,98881.91
2018-07-03T04:02:07.740Z,98886.82
2018-07-03T04:04:37.406Z,98881.28
2018-07-03T04:07:06.637Z,98878.33
2018-07-03T04:09:35.689Z,98881.12
2018-07-03T04:12:04.776Z,98876.52
2018-07-03T04:14:33.958Z,98885.06
2018-07-03T04:17:03.029Z,98887.25
2018-07-03T04:19:32.214Z,98879.47
2018-07-03T04:22:01.310Z,98885.55
2018-07-03T04:24:30.357Z,98863.11
2018-07-03T04:26:59.394Z,98900.38
2018-07-03T04:29:28.584Z,98896.22
2018-07-03T04:31:57.608Z,98897.13
2018-07-03T04:34:26.682Z,98886.81
2018-07-03T04:36:55.697Z,98891.95
2018-07-03T04:39:25.206Z,98893.18
2018-07-03T04:41:54.453Z,98902.27
2018-07-03T04:44:23.499Z,98852.70
2018-07-03T04:46:52.578Z,98901.08
2018-07-03T04:49:21.589Z,98890.88
2018-07-03T04:51:50.655Z,98893.66
2018-07-03T04:54:19.924Z,98894.73
2018-07-03T04:56:49.059Z,98862.28
2018-07-03T04:59:18.486Z,98891.04
2018-07-03T05:01:47.515Z,98878.51
2018-07-03T05:04:16.938Z,98881.25
2018-07-03T05:06:46.284Z,98878.67
2018-07-03T05:09:15.296Z,98881.72
2018-07-03T05:11:44.673Z,98880.41
2018-07-03T05:14:13.738Z,98879.09
2018-07-03T05:16:42.806Z,98882.24
2018-07-03T05:19:11.844Z,98884.08
2018-07-03T05:21:41.037Z,98887.80
2018-07-03T05:24:10.077Z,98893.41
2018-07-03T05:26:39.174Z,98888.03
2018-07-03T05:29:08.214Z,98884.02
2018-07-03T05:31:37.697Z,98884.03
2018-07-03T05:34:07.162Z,98891.45
2018-07-03T05:36:36.341Z,98897.91
2018-07-03T05:39:08.034Z,98899.92
2018-07-03T05:41:37.493Z,98897.24
2018-07-03T05:44:06.497Z,98900.00
2018-07-03T05:46:35.616Z,98903.76
2018-07-03T05:49:04.818Z,98901.95
2018-07-03T05:51:34.446Z,98769.19
2018-07-03T05:54:04.377Z,98897.93
2018-07-03T05:56:33.470Z,98901.16
2018-07-03T05:59:02.605Z,98911.84
2018-07-03T06:01:32.013Z,98920.30
2018-07-03T06:04:01.130Z,98921.78
2018-07-03T06:06:30.839Z,98600.56
2018-07-03T06:08:59.952Z,98917.41
2018-07-03T06:11:29.009Z,98919.32
2018-07-03T06:13:58.082Z,98916.27
2018-07-03T06:16:27.176Z,98911.66
2018-07-03T06:18:56.414Z,98919.67
2018-07-03T06:21:25.388Z,98915.09
2018-07-03T06:23:55.067Z,98922.16
2018-07-03T06:26:24.094Z,98916.23
2018-07-03T06:28:53.193Z,98914.86
2018-07-03T06:31:22.241Z,98920.77
2018-07-03T06:33:51.349Z,98928.67
2018-07-03T06:36:20.429Z,98925.02
2018-07-03T06:38:49.721Z,98923.14
2018-07-03T06:41:18.846Z,98931.84
2018-07-03T06:43:48.043Z,98929.14
2018-07-03T06:46:17.148Z,98933.90
2018-07-03T06:48:46.421Z,98927.47
2018-07-03T06:51:15.645Z,98931.09
2018-07-03T06:53:44.693Z,98926.47
2018-07-03T06:56:13.819Z,98934.84
2018-07-03T06:58:42.942Z,98935.16
2018-07-03T07:01:12.011Z,98930.98
2018-07-03T07:03:41.401Z,98932.80
2018-07-03T07:06:10.517Z,98935.19
2018-07-03T07:08:39.774Z,98939.77
2018-07-03T07:11:08.703Z,98936.77
2018-07-03T07:13:38.088Z,98932.45
2018-07-03T07:16:07.142Z,98929.20
2018-07-03T07:18:36.365Z,98929.18
2018-07-03T07:21:05.460Z,98929.84
2018-07-03T07:23:34.751Z,98926.13
2018-07-03T07:26:03.784Z,98926.02
2018-07-03T07:28:32.897Z,98929.49
2018-07-03T07:31:02.125Z,98927.01
2018-07-03T07:33:31.166Z,98927.01
2018-07-03T07:36:00.324Z,98877.67
2018-07-03T07:38:29.597Z,98932.66
2018-07-03T07:40:58.706Z,98933.00
2018-07-03T07:43:27.840Z,98930.14
2018-07-03T07:45:59.296Z,98930.09
2018-07-03T07:48:28.352Z,98924.98
2018-07-03T07:50:57.429Z,98925.53
2018-07-03T07:53:26.604Z,98928.23
2018-07-03T07:55:55.863Z,98924.88
2018-07-03T07:58:24.975Z,98927.45
2018-07-03T08:00:54.172Z,98927.40
2018-07-03T08:03:23.415Z,98924.04
2018-07-03T08:05:52.531Z,98922.61
2018-07-03T08:08:21.626Z,98920.08
2018-07-03T08:10:50.722Z,98918.81
2018-07-03T08:13:19.832Z,98924.45
2018-07-03T08:15:48.932Z,98924.44
2018-07-03T08:18:18.065Z,98923.52
2018-07-03T08:20:47.166Z,98883.47
2018-07-03T08:23:16.293Z,98925.87
2018-07-03T08:25:45.377Z,98927.55
2018-07-03T08:28:14.428Z,98927.86
2018-07-03T08:30:43.634Z,98926.64
2018-07-03T08:33:13.857Z,98926.86
2018-07-03T08:35:43.070Z,98933.50
2018-07-03T08:38:12.373Z,98935.53
2018-07-03T08:40:41.774Z,98929.34
2018-07-03T08:43:10.828Z,98930.42
2018-07-03T08:45:39.902Z,98932.14
2018-07-03T08:48:08.952Z,98928.86
2018-07-03T08:50:38.062Z,98925.06
2018-07-03T08:53:07.183Z,98926.21
2018-07-03T08:55:36.364Z,98935.21
2018-07-03T08:58:05.554Z,98921.91
2018-07-03T09:00:35.255Z,98919.78
2018-07-03T09:03:04.486Z,98920.73
2018-07-03T09:05:33.534Z,98917.13
2018-07-03T09:08:02.613Z,98912.20
2018-07-03T09:10:31.662Z,98917.39
2018-07-03T09:13:00.830Z,98913.29
2018-07-03T09:15:30.250Z,98909.08
2018-07-03T09:17:59.343Z,98915.44
2018-07-03T09:20:28.504Z,98914.38
2018-07-03T09:22:57.553Z,98907.86
2018-07-03T09:25:26.641Z,98909.09
2018-07-03T09:27:55.820Z,98916.66
2018-07-03T09:30:24.920Z,98919.37
2018-07-03T09:32:54.090Z,98916.22
2018-07-03T09:35:23.221Z,98913.53
2018-07-03T09:37:52.405Z,98913.25
2018-07-03T09:40:21.534Z,98908.52
2018-07-03T09:42:51.686Z,98910.38
2018-07-03T09:45:20.720Z,98915.02
2018-07-03T09:47:49.842Z,98908.56
2018-07-03T09:50:18.905Z,98910.16
2018-07-03T09:52:48.007Z,98913.74
2018-07-03T09:55:17.097Z,98916.98
2018-07-03T09:57:46.653Z,98913.67
2018-07-03T10:00:20.206Z,98915.55
2018-07-03T10:02:49.916Z,98916.57
2018-07-03T10:05:19.057Z,98918.33
2018-07-03T10:07:48.541Z,98914.61
2018-07-03T10:10:17.693Z,98912.91
2018-07-03T10:12:46.738Z,98908.90
2018-07-03T10:15:15.843Z,98914.86
2018-07-03T10:17:44.945Z,98923.39
2018-07-03T10:20:14.117Z,98918.66
2018-07-03T10:22:43.326Z,98912.52
2018-07-03T10:25:12.425Z,98916.30
2018-07-03T10:27:41.632Z,98917.44
2018-07-03T10:30:10.685Z,98919.56
2018-07-03T10:32:39.833Z,98915.41
2018-07-03T10:35:08.998Z,98908.27
2018-07-03T10:37:38.077Z,98905.30
2018-07-03T10:40:07.264Z,98909.17
2018-07-03T10:42:36.363Z,98907.08
2018-07-03T10:45:05.563Z,98901.89
2018-07-03T10:47:34.606Z,98903.82
2018-07-03T10:50:03.725Z,98899.62
2018-07-03T10:52:32.822Z,98899.64
2018-07-03T10:55:01.871Z,98895.56
2018-07-03T10:57:31.006Z,98895.77
2018-07-03T11:00:00.110Z,98898.18
2018-07-03T11:02:29.149Z,98895.72
2018-07-03T11:04:58.277Z,98895.55
2018-07-03T11:07:27.314Z,98894.38
2018-07-03T11:09:56.381Z,98893.80
2018-07-03T11:12:26.601Z,98889.77
2018-07-03T11:14:55.717Z,98896.52
2018-07-03T11:17:24.962Z,98888.19
2018-07-03T11:19:54.275Z,98883.29
2018-07-03T11:22:23.424Z,98881.20
2018-07-03T11:24:52.481Z,98878.81
2018-07-03T11:27:21.538Z,98880.95
2018-07-03T11:29:51.678Z,98871.24
2018-07-03T11:32:20.866Z,98870.69
2018-07-03T11:34:50.034Z,98865.20
2018-07-03T11:37:20.050Z,98858.59
2018-07-03T11:39:49.971Z,98861.50
2018-07-03T11:42:19.334Z,98857.98
2018-07-03T11:44:48.403Z,98844.88
2018-07-03T11:47:17.580Z,98846.13
2018-07-03T11:49:46.598Z,98846.97
2018-07-03T11:52:15.709Z,98852.89
2018-07-03T11:54:44.815Z,98810.14
2018-07-03T11:57:13.969Z,98843.21
2018-07-03T11:59:43.035Z,98849.67
2018-07-03T12:02:12.199Z,98848.42
2018-07-03T12:04:41.243Z,98847.84
2018-07-03T12:07:10.392Z,98851.86
2018-07-03T12:09:39.489Z,98845.57
2018-07-03T12:12:08.619Z,98842.66
2018-07-03T12:14:38.911Z,98846.28
2018-07-03T12:17:08.656Z,98843.62
2018-07-03T12:19:38.278Z,98839.38
2018-07-03T12:22:07.356Z,98837.05
2018-07-03T12:24:36.381Z,98841.55
2018-07-03T12:27:05.529Z,98834.09
2018-07-03T12:29:34.626Z,98831.09
2018-07-03T12:32:03.711Z,98828.51
2018-07-03T12:34:32.847Z,98832.72
2018-07-03T12:37:02.032Z,98828.00
2018-07-03T12:39:31.637Z,98831.22
2018-07-03T12:42:00.741Z,98831.43
2018-07-03T12:44:29.902Z,98828.25
2018-07-03T12:46:59.026Z,98823.47
2018-07-03T12:49:28.290Z,98825.63
2018-07-03T12:51:57.452Z,98819.33
2018-07-03T12:54:26.641Z,98825.95
2018-07-03T12:56:55.716Z,98814.22
2018-07-03T12:59:25.229Z,98816.19
2018-07-03T13:01:54.400Z,98808.84
2018-07-03T13:04:23.442Z,98813.98
2018-07-03T13:06:52.615Z,98816.09
2018-07-03T13:09:21.660Z,98800.84
2018-07-03T13:11:50.731Z,98805.86
2018-07-03T13:14:19.802Z,98810.37
2018-07-03T13:16:48.933Z,98803.94
2018-07-03T13:19:18.057Z,98799.61
2018-07-03T13:21:47.165Z,98796.26
2018-07-03T13:24:16.283Z,98796.64
2018-07-03T13:26:45.336Z,98794.61
2018-07-03T13:29:14.442Z,98795.66
2018-07-03T13:31:43.622Z,98787.73
2018-07-03T13:34:12.768Z,98790.70
2018-07-03T13:36:41.821Z,98788.16
2018-07-03T13:39:11.575Z,98793.04
2018-07-03T13:41:40.725Z,98790.41
2018-07-03T13:44:10.634Z,98791.23
2018-07-03T13:46:39.693Z,98783.05
2018-07-03T13:49:08.767Z,98787.75
2018-07-03T13:51:37.842Z,98791.39
2018-07-03T13:54:06.965Z,98783.83
2018-07-03T13:56:36.134Z,98791.78
2018-07-03T13:59:05.272Z,98788.61
2018-07-03T14:01:34.313Z,98780.62
2018-07-03T14:04:03.571Z,98792.19
2018-07-03T14:06:32.678Z,98789.72
2018-07-03T14:09:01.859Z,98786.81
2018-07-03T14:11:30.950Z,98787.96
2018-07-03T14:14:00.083Z,98787.67
2018-07-03T14:16:29.249Z,98779.60
2018-07-03T14:18:58.482Z,98780.03
2018-07-03T14:21:27.628Z,98779.42
2018-07-03T14:23:56.688Z,98776.00
2018-07-03T14:26:25.778Z,98782.41
2018-07-03T14:28:54.851Z,98785.78
2018-07-03T14:31:24.130Z,98776.70
2018-07-03T14:33:53.204Z,98776.75
2018-07-03T14:36:22.635Z,98779.36
2018-07-03T14:38:51.725Z,98777.33
2018-07-03T14:41:20.811Z,98783.92
2018-07-03T14:43:49.912Z,98785.59
2018-07-03T14:46:19.189Z,98785.90
2018-07-03T14:48:48.261Z,98785.84
2018-07-03T14:51:18.295Z,98784.00
2018-07-03T14:53:47.318Z,98780.54
2018-07-03T14:56:16.426Z,98773.41
2018-07-03T14:58:45.531Z,98775.70
2018-07-03T15:01:14.726Z,98771.61
2018-07-03T15:03:44.375Z,98771.98
2018-07-03T15:06:13.440Z,98768.92
2018-07-03T15:08:42.587Z,98768.58
2018-07-03T15:11:11.700Z,98761.71
2018-07-03T15:13:40.755Z,98757.04
2018-07-03T15:16:10.283Z,98757.91
2018-07-03T15:18:44.571Z,98759.28
2018-07-03T15:21:13.666Z,98763.44
2018-07-03T15:23:42.782Z,98756.83
2018-07-03T15:26:11.846Z,98760.98
2018-07-03T15:28:40.927Z,98762.55
2018-07-03T15:31:10.389Z,98760.47
2018-07-03T15:33:39.439Z,98752.88
2018-07-03T15:36:08.506Z,98754.84
2018-07-03T15:38:37.587Z,98747.70
2018-07-03T15:41:06.774Z,98749.42
2018-07-03T15:43:35.946Z,98744.20
2018-07-03T15:46:05.378Z,98732.00
2018-07-03T15:48:34.498Z,98740.95
2018-07-03T15:51:03.853Z,98740.13
2018-07-03T15:53:32.935Z,98742.83
2018-07-03T15:56:01.981Z,98752.00
2018-07-03T15:58:31.196Z,98741.94
2018-07-03T16:01:00.281Z,98743.06
2018-07-03T16:05:42.631Z,98740.22
2018-07-03T16:08:38.900Z,98740.19
2018-07-03T16:11:07.937Z,98738.34
2018-07-03T16:13:37.066Z,98735.55
2018-07-03T16:16:06.117Z,98734.23
2018-07-03T16:18:35.633Z,98734.38
2018-07-03T16:21:05.339Z,98722.74
2018-07-03T16:23:34.503Z,98720.58
2018-07-03T16:26:04.358Z,98469.25
2018-07-03T16:28:38.061Z,98717.00
2018-07-03T16:31:23.048Z,98714.25
2018-07-03T16:33:58.670Z,98716.50
2018-07-03T16:36:45.054Z,98713.08
2018-07-03T16:39:15.960Z,98705.58
2018-07-03T16:41:46.633Z,98711.84
2018-07-03T16:44:16.636Z,98708.11
2018-07-03T16:46:45.805Z,98708.64
2018-07-03T16:49:14.833Z,98708.41
2018-07-03T16:51:43.971Z,98709.83
2018-07-03T16:54:13.114Z,98705.31
2018-07-03T16:56:42.214Z,98714.56
2018-07-03T16:59:11.543Z,98715.00
2018-07-03T17:01:40.610Z,98714.83
2018-07-03T17:04:09.720Z,98711.56
2018-07-03T17:06:39.476Z,98714.33
2018-07-03T17:09:10.340Z,98716.47
2018-07-03T17:11:39.664Z,98712.09
2018-07-03T17:14:10.258Z,98716.33
2018-07-03T17:16:39.749Z,98725.25
2018-07-03T17:19:14.151Z,98727.91
2018-07-03T17:21:43.266Z,98728.22
2018-07-03T17:24:12.841Z,98725.98
2018-07-03T17:26:41.901Z,98728.45
2018-07-03T17:29:11.044Z,98735.85
2018-07-03T17:31:40.126Z,98731.27
2018-07-03T17:34:09.195Z,98726.30
2018-07-03T17:36:38.306Z,98725.78
2018-07-03T17:39:14.555Z,98718.91
2018-07-03T17:41:55.378Z,98709.49
2018-07-03T17:44:35.082Z,98715.11
2018-07-03T17:47:04.251Z,98723.73
2018-07-03T17:49:33.352Z,98720.64
2018-07-03T17:52:02.563Z,98722.91
2018-07-03T17:54:31.659Z,98726.30
2018-07-03T17:57:00.722Z,98726.06
2018-07-03T17:59:29.917Z,98729.28
2018-07-03T18:01:59.091Z,98726.27
2018-07-03T18:04:28.166Z,98731.23
2018-07-03T18:06:57.335Z,98739.79
2018-07-03T18:09:26.520Z,98739.88
2018-07-03T18:11:55.669Z,98740.27
2018-07-03T18:14:25.126Z,98745.66
2018-07-03T18:16:54.226Z,98748.94
2018-07-03T18:19:28.408Z,98750.27
2018-07-03T18:21:57.509Z,98750.10
2018-07-03T18:24:26.574Z,98755.27
2018-07-03T18:26:55.748Z,98749.23
2018-07-03T18:29:25.285Z,98755.81
2018-07-03T18:31:54.329Z,98758.03
2018-07-03T18:34:23.728Z,98754.10
2018-07-03T18:36:52.850Z,98757.23
2018-07-03T18:39:21.980Z,98757.84
2018-07-03T18:41:51.218Z,98756.30
2018-07-03T18:44:20.729Z,98753.99
2018-07-03T18:46:49.827Z,98755.56
2018-07-03T18:49:18.863Z,98743.35
2018-07-03T18:51:47.961Z,98742.38
2018-07-03T18:54:17.064Z,98742.14
2018-07-03T18:56:46.347Z,98742.70
2018-07-03T18:59:15.424Z,98750.44
2018-07-03T19:01:44.600Z,98753.17
2018-07-03T19:04:13.874Z,98751.00
2018-07-03T19:06:43.123Z,98754.33
2018-07-03T19:09:12.243Z,98761.00
2018-07-03T19:11:41.358Z,98760.78
2018-07-03T19:14:10.455Z,98761.77
2018-07-03T19:16:39.594Z,98763.00
2018-07-03T19:19:08.760Z,98770.03
2018-07-03T19:21:37.915Z,98775.72
2018-07-03T19:24:07.125Z,98767.34
2018-07-03T19:26:36.201Z,98764.05
2018-07-03T19:29:05.442Z,98763.47
2018-07-03T19:31:34.578Z,98762.48
2018-07-03T19:34:03.773Z,98761.94
2018-07-03T19:36:32.928Z,98768.91
2018-07-03T19:39:02.121Z,98771.06
2018-07-03T19:41:31.223Z,98767.33
2018-07-03T19:44:00.383Z,98771.78
2018-07-03T19:46:29.514Z,98771.59
2018-07-03T19:48:58.625Z,98772.77
2018-07-03T19:51:27.786Z,98774.74
2018-07-03T19:53:56.964Z,98769.86
2018-07-03T19:56:26.189Z,98771.41
2018-07-03T19:58:55.256Z,98764.75
2018-07-03T20:01:24.370Z,98767.81
2018-07-03T20:03:54.006Z,98767.71
2018-07-03T20:06:23.132Z,98773.68
2018-07-03T20:08:52.436Z,98778.02
2018-07-03T20:11:21.550Z,98778.98
2018-07-03T20:13:50.786Z,98778.77
2018-07-03T20:16:19.875Z,98777.19
2018-07-03T20:18:49.368Z,98771.86
2018-07-03T20:21:18.414Z,98778.80
2018-07-03T20:23:47.797Z,98770.78
2018-07-03T20:26:16.921Z,98769.46
2018-07-03T20:28:46.054Z,98778.05
2018-07-03T20:31:15.103Z,98773.64
2018-07-03T20:33:45.172Z,98771.97
2018-07-03T20:36:14.602Z,98780.29
2018-07-03T20:38:43.813Z,98779.58
2018-07-03T20:41:12.944Z,98781.66
2018-07-03T20:43:42.662Z,98781.14
2018-07-03T20:46:11.808Z,98780.47
2018-07-03T20:48:40.879Z,98773.44
2018-07-03T20:51:10.739Z,98776.16
2018-07-03T20:53:39.803Z,98773.84
2018-07-03T20:56:08.955Z,98779.48
2018-07-03T20:58:38.168Z,98785.62
2018-07-03T21:01:07.375Z,98781.97
2018-07-03T21:03:36.459Z,98776.06
2018-07-03T21:06:05.950Z,98780.02
2018-07-03T21:08:34.922Z,98779.47
2018-07-03T21:11:04.252Z,98776.20
2018-07-03T21:13:33.301Z,98766.81
2018-07-03T21:16:02.460Z,98770.59
2018-07-03T21:18:32.150Z,98770.96
2018-07-03T21:21:01.363Z,98774.74
2018-07-03T21:23:30.444Z,98783.56
2018-07-03T21:25:59.578Z,98784.09
2018-07-03T21:28:28.766Z,98787.80
2018-07-03T21:30:57.811Z,98785.70
2018-07-03T21:33:26.909Z,98793.07
2018-07-03T21:35:56.019Z,98791.94
2018-07-03T21:38:25.148Z,98799.23
2018-07-03T21:40:54.242Z,98801.12
2018-07-03T21:43:23.268Z,98803.83
2018-07-03T21:45:52.342Z,98812.64
2018-07-03T21:48:21.448Z,98812.77
2018-07-03T21:50:50.537Z,98807.62
2018-07-03T21:53:19.614Z,98809.06
2018-07-03T21:55:48.761Z,98811.92
2018-07-03T21:58:17.882Z,98811.41
2018-07-03T22:00:46.962Z,98810.22
2018-07-03T22:03:15.994Z,98812.55
2018-07-03T22:05:45.115Z,98813.38
2018-07-03T22:08:14.168Z,98819.44
2018-07-03T22:10:43.270Z,98821.02
2018-07-03T22:13:12.380Z,98822.72
2018-07-03T22:15:41.454Z,98819.53
2018-07-03T22:18:10.510Z,98817.80
2018-07-03T22:20:39.565Z,98825.24
2018-07-03T22:23:08.606Z,98823.75
2018-07-03T22:25:37.660Z,98830.88
2018-07-03T22:28:06.717Z,98827.11
2018-07-03T22:30:35.769Z,98832.44
2018-07-03T22:33:04.803Z,98846.98
2018-07-03T22:35:33.882Z,98834.70
2018-07-03T22:38:02.928Z,98836.64
2018-07-03T22:40:32.165Z,98837.30
2018-07-03T22:43:01.251Z,98836.31
2018-07-03T22:45:31.305Z,98840.35
2018-07-03T22:48:00.341Z,98840.84
2018-07-03T22:50:29.424Z,98839.25
2018-07-03T22:52:58.674Z,98840.75
2018-07-03T22:55:27.736Z,98838.02
2018-07-03T22:57:56.742Z,98832.39
2018-07-03T23:00:25.896Z,98825.58
2018-07-03T23:02:54.980Z,98833.85
2018-07-03T23:05:24.021Z,98833.38
2018-07-03T23:07:53.179Z,98829.81
2018-07-03T23:10:22.161Z,98829.72
2018-07-03T23:12:51.255Z,98823.66
2018-07-03T23:15:20.289Z,98825.77
2018-07-03T23:17:49.383Z,98815.44
2018-07-03T23:20:18.458Z,98815.29
2018-07-03T23:22:47.510Z,98819.58
2018-07-03T23:25:16.566Z,98817.38
2018-07-03T23:27:45.597Z,98818.92
2018-07-03T23:30:15.131Z,98814.97
2018-07-03T23:32:44.244Z,98811.15
2018-07-03T23:35:13.275Z,98812.13
2018-07-03T23:37:42.372Z,98811.69
2018-07-03T23:40:11.446Z,98807.78
2018-07-03T23:42:40.594Z,98809.00
2018-07-03T23:45:09.637Z,98812.47
2018-07-03T23:47:49.860Z,98815.18
2018-07-03T23:50:30.270Z,98819.65
2018-07-03T23:53:10.629Z,98816.30
2018-07-03T23:55:51.201Z,98814.83
2018-07-03T23:58:31.570Z,98811.27
